createdAt,value
2022-12-05T00:01:30.257Z,22.70
2022-12-05T00:04:01.342Z,22.67
2022-12-05T00:06:28.600Z,22.64
2022-12-05T00:08:55.104Z,22.58
2022-12-05T00:11:26.099Z,22.56
2022-12-05T00:13:53.395Z,22.53
2022-12-05T00:16:20.812Z,22.50
2022-12-05T00:18:47.368Z,22.45
2022-12-05T00:21:15.964Z,22.43
2022-12-05T00:23:42.413Z,22.43
2022-12-05T00:26:08.880Z,22.41
2022-12-05T00:28:35.376Z,22.40
2022-12-05T00:31:12.252Z,22.38
2022-12-05T00:33:38.881Z,22.34
2022-12-05T00:36:10.252Z,22.32
2022-12-05T00:38:36.797Z,22.31
2022-12-05T00:41:07.058Z,22.31
2022-12-05T00:43:33.588Z,22.29
2022-12-05T00:46:17.028Z,22.26
2022-12-05T00:48:43.589Z,22.24
2022-12-05T00:51:10.986Z,22.20
2022-12-05T00:53:37.461Z,22.19
2022-12-05T00:56:05.329Z,22.15
2022-12-05T00:58:32.055Z,22.14
2022-12-05T01:00:58.760Z,22.13
2022-12-05T01:03:25.382Z,22.11
2022-12-05T01:05:51.853Z,22.08
2022-12-05T01:08:18.354Z,22.05
2022-12-05T01:10:52.870Z,22.04
2022-12-05T01:13:19.341Z,22.03
2022-12-05T01:15:45.796Z,22.00
2022-12-05T01:18:12.280Z,21.98
2022-12-05T01:20:42.218Z,21.92
2022-12-05T01:23:08.776Z,21.93
2022-12-05T01:25:35.214Z,21.90
2022-12-05T01:28:01.713Z,21.88
2022-12-05T01:30:28.184Z,21.85
2022-12-05T01:32:54.766Z,21.84
2022-12-05T01:35:21.232Z,21.83
2022-12-05T01:37:47.762Z,21.79
2022-12-05T01:40:14.222Z,21.77
2022-12-05T01:42:40.730Z,21.75
2022-12-05T01:45:14.595Z,21.73
2022-12-05T01:47:41.085Z,21.71
2022-12-05T01:50:08.032Z,21.68
2022-12-05T01:52:34.565Z,21.66
2022-12-05T01:55:06.134Z,21.65
2022-12-05T01:57:32.626Z,21.62
2022-12-05T02:00:05.709Z,21.57
2022-12-05T02:02:33.301Z,21.57
2022-12-05T02:05:07.249Z,21.58
2022-12-05T02:07:33.753Z,21.59
2022-12-05T02:10:00.414Z,21.59
2022-12-05T02:12:27.297Z,21.59
2022-12-05T02:15:15.737Z,21.59
2022-12-05T02:17:44.993Z,21.57
2022-12-05T02:20:39.481Z,21.55
2022-12-05T02:23:27.506Z,21.51
2022-12-05T02:26:19.667Z,21.50
2022-12-05T02:29:01.359Z,21.46
2022-12-05T02:31:39.888Z,21.44
2022-12-05T02:34:19.726Z,21.42
2022-12-05T02:36:56.502Z,21.41
2022-12-05T02:39:27.188Z,21.38
2022-12-05T02:42:09.805Z,21.36
2022-12-05T02:44:40.314Z,21.35
2022-12-05T02:47:07.085Z,21.33
2022-12-05T02:49:34.801Z,21.32
2022-12-05T02:52:02.906Z,21.30
2022-12-05T02:54:35.290Z,21.26
2022-12-05T02:57:01.738Z,21.26
2022-12-05T02:59:28.550Z,21.23
2022-12-05T03:01:55.066Z,21.14
2022-12-05T03:04:22.937Z,21.12
2022-12-05T03:07:08.502Z,21.11
2022-12-05T03:09:49.261Z,21.13
2022-12-05T03:12:21.428Z,21.16
2022-12-05T03:14:51.266Z,21.14
2022-12-05T03:17:21.876Z,21.18
2022-12-05T03:20:02.612Z,21.17
2022-12-05T03:22:54.205Z,21.14
2022-12-05T03:25:22.924Z,21.12
2022-12-05T03:27:54.684Z,21.11
2022-12-05T03:30:22.285Z,21.08
2022-12-05T03:33:18.648Z,21.06
2022-12-05T03:36:04.569Z,21.04
2022-12-05T03:38:36.884Z,21.08
2022-12-05T03:41:15.300Z,21.07
2022-12-05T03:44:13.352Z,21.06
2022-12-05T03:46:45.906Z,21.07
2022-12-05T03:49:17.669Z,21.08
2022-12-05T03:51:49.533Z,21.08
2022-12-05T03:54:23.672Z,21.07
2022-12-05T03:56:51.380Z,21.05
2022-12-05T03:59:38.221Z,21.03
2022-12-05T04:02:08.457Z,21.00
2022-12-05T04:04:37.462Z,20.98
2022-12-05T04:07:05.693Z,21.01
2022-12-05T04:09:41.746Z,21.02
2022-12-05T04:12:10.966Z,21.00
2022-12-05T04:14:58.559Z,20.97
2022-12-05T04:17:34.110Z,20.99
2022-12-05T04:20:31.982Z,20.93
2022-12-05T04:22:58.490Z,20.90
2022-12-05T04:25:33.950Z,20.88
2022-12-05T04:28:09.361Z,20.88
2022-12-05T04:31:05.828Z,20.87
2022-12-05T04:33:50.436Z,20.86
2022-12-05T04:36:19.851Z,20.86
2022-12-05T04:38:53.457Z,20.86
2022-12-05T04:41:24.998Z,20.85
2022-12-05T04:43:51.874Z,20.83
2022-12-05T04:46:18.482Z,20.82
2022-12-05T04:48:48.592Z,20.82
2022-12-05T04:51:17.702Z,20.82
2022-12-05T04:53:44.519Z,20.80
2022-12-05T04:56:11.184Z,20.80
2022-12-05T04:58:37.640Z,20.79
2022-12-05T05:01:23.527Z,20.78
2022-12-05T05:03:59.205Z,20.79
2022-12-05T05:06:26.634Z,20.78
2022-12-05T05:08:54.499Z,20.78
2022-12-05T05:11:29.129Z,20.78
2022-12-05T05:13:55.658Z,20.75
2022-12-05T05:16:27.047Z,20.76
2022-12-05T05:18:53.694Z,20.74
2022-12-05T05:21:24.979Z,20.72
2022-12-05T05:23:51.629Z,20.70
2022-12-05T05:26:18.589Z,20.69
2022-12-05T05:28:45.496Z,20.67
2022-12-05T05:31:12.209Z,20.66
2022-12-05T05:33:38.737Z,20.67
2022-12-05T05:36:14.962Z,20.70
2022-12-05T05:38:42.968Z,20.70
2022-12-05T05:41:16.650Z,20.70
2022-12-05T05:43:43.306Z,20.68
2022-12-05T05:46:09.928Z,20.72
2022-12-05T05:48:36.404Z,20.71
2022-12-05T05:51:03.013Z,20.69
2022-12-05T05:53:29.473Z,20.70
2022-12-05T05:55:55.936Z,20.71
2022-12-05T05:58:22.399Z,20.70
2022-12-05T06:00:48.930Z,20.70
2022-12-05T06:03:15.524Z,20.70
2022-12-05T06:05:42.093Z,20.70
2022-12-05T06:08:08.612Z,20.68
2022-12-05T06:10:35.141Z,20.69
2022-12-05T06:13:01.605Z,20.70
2022-12-05T06:15:28.057Z,20.69
2022-12-05T06:17:54.589Z,20.70
2022-12-05T06:20:21.033Z,20.67
2022-12-05T06:22:47.469Z,20.66
2022-12-05T06:25:13.930Z,20.64
2022-12-05T06:27:40.381Z,20.63
2022-12-05T06:30:07.430Z,20.60
2022-12-05T06:32:33.890Z,20.58
2022-12-05T06:35:00.700Z,20.56
2022-12-05T06:37:27.144Z,20.57
2022-12-05T06:39:53.593Z,20.52
2022-12-05T06:42:22.118Z,20.56
2022-12-05T06:44:48.564Z,20.57
2022-12-05T06:47:15.017Z,20.58
2022-12-05T06:49:41.467Z,20.59
2022-12-05T06:52:07.921Z,20.59
2022-12-05T06:54:34.460Z,20.59
2022-12-05T06:57:00.961Z,20.58
2022-12-05T06:59:27.408Z,20.58
2022-12-05T07:01:53.895Z,20.53
2022-12-05T07:04:23.933Z,20.56
2022-12-05T07:06:51.320Z,20.56
2022-12-05T07:09:19.109Z,20.55
2022-12-05T07:11:49.372Z,20.53
2022-12-05T07:14:39.003Z,20.53
2022-12-05T07:17:02.319Z,20.53
2022-12-05T07:19:28.867Z,20.51
2022-12-05T07:21:55.310Z,20.48
2022-12-05T07:24:21.748Z,20.47
2022-12-05T07:26:48.215Z,20.47
2022-12-05T07:29:14.666Z,20.48
2022-12-05T07:31:41.196Z,20.48
2022-12-05T07:34:07.750Z,20.47
2022-12-05T07:36:34.444Z,20.46
2022-12-05T07:39:00.966Z,20.39
2022-12-05T07:41:31.605Z,20.43
2022-12-05T07:43:58.481Z,20.42
2022-12-05T07:46:25.223Z,20.41
2022-12-05T07:48:51.988Z,20.43
2022-12-05T07:51:18.797Z,20.41
2022-12-05T07:53:46.016Z,20.39
2022-12-05T07:56:17.052Z,20.38
2022-12-05T07:58:44.588Z,20.39
2022-12-05T08:01:13.112Z,20.37
2022-12-05T08:03:39.653Z,20.37
2022-12-05T08:06:07.726Z,20.36
2022-12-05T08:08:34.171Z,20.37
2022-12-05T08:11:05.103Z,20.36
2022-12-05T08:13:31.545Z,20.37
2022-12-05T08:16:04.241Z,20.37
2022-12-05T08:18:30.816Z,20.38
2022-12-05T08:21:07.767Z,20.31
2022-12-05T08:23:34.298Z,20.28
2022-12-05T08:26:07.822Z,20.32
2022-12-05T08:28:34.296Z,20.35
2022-12-05T08:31:14.642Z,20.38
2022-12-05T08:33:41.254Z,20.34
2022-12-05T08:36:09.275Z,20.36
2022-12-05T08:38:35.916Z,20.29
2022-12-05T08:41:03.368Z,20.29
2022-12-05T08:43:30.168Z,20.38
2022-12-05T08:45:56.640Z,20.41
2022-12-05T08:48:28.963Z,20.43
2022-12-05T08:50:56.037Z,20.42
2022-12-05T08:53:22.493Z,20.42
2022-12-05T08:55:48.961Z,20.39
2022-12-05T08:58:15.490Z,20.37
2022-12-05T09:00:41.950Z,20.36
2022-12-05T09:03:09.986Z,20.34
2022-12-05T09:05:36.501Z,20.25
2022-12-05T09:08:03.187Z,20.32
2022-12-05T09:10:29.861Z,20.36
2022-12-05T09:12:56.325Z,20.35
2022-12-05T09:15:22.971Z,20.37
2022-12-05T09:17:49.473Z,20.37
2022-12-05T09:20:15.947Z,20.37
2022-12-05T09:22:42.783Z,20.34
2022-12-05T09:25:09.475Z,20.37
2022-12-05T09:27:35.917Z,20.35
2022-12-05T09:30:02.467Z,20.35
2022-12-05T09:32:28.989Z,20.33
2022-12-05T09:34:55.680Z,20.37
2022-12-05T09:37:38.801Z,20.37
2022-12-05T09:40:06.763Z,20.30
2022-12-05T09:42:38.249Z,20.28
2022-12-05T09:45:28.934Z,20.28
2022-12-05T09:48:21.707Z,20.30
2022-12-05T09:51:01.592Z,20.34
2022-12-05T09:53:30.777Z,20.36
2022-12-05T09:56:09.162Z,20.35
2022-12-05T09:58:52.566Z,20.34
2022-12-05T10:01:38.460Z,20.31
2022-12-05T10:04:34.976Z,20.32
2022-12-05T10:07:20.192Z,20.31
2022-12-05T10:10:08.778Z,20.28
2022-12-05T10:12:38.129Z,20.30
2022-12-05T10:15:31.028Z,20.26
2022-12-05T10:18:16.005Z,20.25
2022-12-05T10:20:51.964Z,20.25
2022-12-05T10:23:41.571Z,20.23
2022-12-05T10:26:11.053Z,20.27
2022-12-05T10:29:48.314Z,20.28
2022-12-05T10:33:13.454Z,20.31
2022-12-05T10:35:40.515Z,20.30
2022-12-05T10:38:07.436Z,20.30
2022-12-05T10:40:43.327Z,20.30
2022-12-05T10:43:10.577Z,20.29
2022-12-05T10:45:41.732Z,20.29
2022-12-05T10:48:12.471Z,20.29
2022-12-05T10:50:39.200Z,20.29
2022-12-05T10:53:06.385Z,20.31
2022-12-05T10:55:54.982Z,20.32
2022-12-05T10:58:30.383Z,20.31
2022-12-05T11:01:09.852Z,20.31
2022-12-05T11:03:38.117Z,20.30
2022-12-05T11:06:30.085Z,20.31
2022-12-05T11:09:27.149Z,20.32
2022-12-05T11:12:23.554Z,20.32
2022-12-05T11:15:10.422Z,20.29
2022-12-05T11:17:38.053Z,20.28
2022-12-05T11:20:24.997Z,20.25
2022-12-05T11:22:56.146Z,20.24
2022-12-05T11:25:28.359Z,20.22
2022-12-05T11:28:00.778Z,20.22
2022-12-05T11:30:29.040Z,20.19
2022-12-05T11:33:12.443Z,20.23
2022-12-05T11:35:38.895Z,20.24
2022-12-05T11:38:05.780Z,20.29
2022-12-05T11:41:13.779Z,20.31
2022-12-05T11:43:52.032Z,20.36
2022-12-05T11:46:49.596Z,20.37
2022-12-05T11:49:34.700Z,20.40
2022-12-05T11:52:27.234Z,20.40
2022-12-05T11:55:10.467Z,20.41
2022-12-05T11:57:56.902Z,20.39
2022-12-05T12:00:24.964Z,20.40
2022-12-05T12:03:33.033Z,20.38
2022-12-05T12:06:17.692Z,20.37
2022-12-05T12:09:24.397Z,20.37
2022-12-05T12:12:18.728Z,20.35
2022-12-05T12:15:00.814Z,20.32
2022-12-05T12:17:49.239Z,20.26
2022-12-05T12:20:35.034Z,20.20
2022-12-05T12:23:08.249Z,20.18
2022-12-05T12:25:53.445Z,20.22
2022-12-05T12:28:40.138Z,20.20
2022-12-05T12:31:12.683Z,20.19
2022-12-05T12:34:05.325Z,20.18
2022-12-05T12:36:45.617Z,20.19
2022-12-05T12:39:21.054Z,20.17
2022-12-05T12:42:06.606Z,20.15
2022-12-05T12:44:53.929Z,20.13
2022-12-05T12:47:49.719Z,20.13
2022-12-05T12:50:25.498Z,20.15
2022-12-05T12:53:10.754Z,20.21
2022-12-05T12:55:44.926Z,20.29
2022-12-05T12:58:26.338Z,20.47
2022-12-05T13:01:11.680Z,20.61
2022-12-05T13:03:45.101Z,20.70
2022-12-05T13:06:15.525Z,20.81
2022-12-05T13:08:49.972Z,20.86
2022-12-05T13:11:16.483Z,20.91
2022-12-05T13:13:44.638Z,20.94
2022-12-05T13:16:12.722Z,20.87
2022-12-05T13:18:39.212Z,20.87
2022-12-05T13:21:07.203Z,20.92
2022-12-05T13:23:36.566Z,20.90
2022-12-05T13:26:08.346Z,20.89
2022-12-05T13:28:42.300Z,20.89
2022-12-05T13:31:09.200Z,20.87
2022-12-05T13:33:43.004Z,20.84
2022-12-05T13:36:32.132Z,20.87
2022-12-05T13:39:24.766Z,20.96
2022-12-05T13:42:11.298Z,21.08
2022-12-05T13:44:45.471Z,21.15
2022-12-05T13:47:32.134Z,21.15
2022-12-05T13:50:04.092Z,21.19
2022-12-05T13:52:31.124Z,21.18
2022-12-05T13:55:12.653Z,21.25
2022-12-05T13:57:45.474Z,21.35
2022-12-05T14:00:11.806Z,21.41
2022-12-05T14:02:47.324Z,21.40
2022-12-05T14:05:13.758Z,21.32
2022-12-05T14:08:00.871Z,21.26
2022-12-05T14:10:35.873Z,21.22
2022-12-05T14:13:23.472Z,21.19
2022-12-05T14:15:50.506Z,21.15
2022-12-05T14:18:25.120Z,21.13
2022-12-05T14:21:03.475Z,21.11
2022-12-05T14:23:38.244Z,21.06
2022-12-05T14:26:10.684Z,21.05
2022-12-05T14:28:57.177Z,21.02
2022-12-05T14:31:42.476Z,21.09
2022-12-05T14:34:24.861Z,21.17
2022-12-05T14:36:56.256Z,21.26
2022-12-05T14:39:28.157Z,21.37
2022-12-05T14:41:58.426Z,21.87
2022-12-05T14:44:28.865Z,21.65
2022-12-05T14:46:55.325Z,21.49
2022-12-05T14:50:04.636Z,21.52
2022-12-05T14:52:31.412Z,21.51
2022-12-05T14:55:07.266Z,21.42
2022-12-05T14:57:46.373Z,21.43
2022-12-05T15:00:19.642Z,21.41
2022-12-05T15:02:46.348Z,21.56
2022-12-05T15:05:30.549Z,21.59
2022-12-05T15:07:57.110Z,21.72
2022-12-05T15:10:33.518Z,21.88
2022-12-05T15:13:20.447Z,22.05
2022-12-05T15:15:52.317Z,22.10
2022-12-05T15:18:38.366Z,22.19
2022-12-05T15:21:10.336Z,22.33
2022-12-05T15:23:55.044Z,22.46
2022-12-05T15:26:48.463Z,22.44
2022-12-05T15:29:16.793Z,22.40
2022-12-05T15:31:51.297Z,22.39
2022-12-05T15:34:43.309Z,22.42
2022-12-05T15:37:16.914Z,22.45
2022-12-05T15:39:55.525Z,22.53
2022-12-05T15:42:29.033Z,22.59
2022-12-05T15:45:16.462Z,22.57
2022-12-05T15:47:59.777Z,22.55
2022-12-05T15:50:49.718Z,22.60
2022-12-05T15:53:17.337Z,22.58
2022-12-05T15:55:50.661Z,22.63
2022-12-05T15:58:50.659Z,22.62
2022-12-05T16:01:24.006Z,22.57
2022-12-05T16:03:53.114Z,22.56
2022-12-05T16:06:25.684Z,22.60
2022-12-05T16:08:52.200Z,22.58
2022-12-05T16:11:18.663Z,22.57
2022-12-05T16:13:49.997Z,22.58
2022-12-05T16:16:18.357Z,22.58
2022-12-05T16:18:57.992Z,22.60
2022-12-05T16:21:38.923Z,22.57
2022-12-05T16:24:15.703Z,22.68
2022-12-05T16:26:42.150Z,22.63
2022-12-05T16:29:25.956Z,22.62
2022-12-05T16:32:02.631Z,22.60
2022-12-05T16:34:29.486Z,22.57
2022-12-05T16:36:56.195Z,22.67
2022-12-05T16:39:22.836Z,22.70
2022-12-05T16:41:49.596Z,22.68
2022-12-05T16:44:57.672Z,22.67
2022-12-05T16:47:25.729Z,22.66
2022-12-05T16:49:52.245Z,22.82
2022-12-05T16:52:18.737Z,22.80
2022-12-05T16:54:46.121Z,22.82
2022-12-05T16:57:13.666Z,22.81
2022-12-05T16:59:41.990Z,22.82
2022-12-05T17:02:17.076Z,22.86
2022-12-05T17:04:43.884Z,22.87
2022-12-05T17:07:10.565Z,22.92
2022-12-05T17:09:37.065Z,22.98
2022-12-05T17:12:29.798Z,23.11
2022-12-05T17:14:56.737Z,23.21
2022-12-05T17:17:23.817Z,23.32
2022-12-05T17:19:50.361Z,23.25
2022-12-05T17:22:16.852Z,23.27
2022-12-05T17:24:43.591Z,23.30
2022-12-05T17:27:13.189Z,23.29
2022-12-05T17:29:39.688Z,23.36
2022-12-05T17:32:06.217Z,23.40
2022-12-05T17:34:32.670Z,23.44
2022-12-05T17:37:00.151Z,23.49
2022-12-05T17:39:28.643Z,23.51
2022-12-05T17:41:55.559Z,23.53
2022-12-05T17:44:22.194Z,23.50
2022-12-05T17:46:49.314Z,23.52
2022-12-05T17:49:16.689Z,23.53
2022-12-05T17:52:05.417Z,23.54
2022-12-05T17:54:30.342Z,23.53
2022-12-05T17:56:57.201Z,23.53
2022-12-05T17:59:23.682Z,23.54
2022-12-05T18:01:50.143Z,23.50
2022-12-05T18:04:21.427Z,23.63
2022-12-05T18:06:49.465Z,23.72
2022-12-05T18:09:16.010Z,23.72
2022-12-05T18:11:42.456Z,23.67
2022-12-05T18:14:09.745Z,23.61
2022-12-05T18:16:36.267Z,23.56
2022-12-05T18:19:02.874Z,23.49
2022-12-05T18:21:29.320Z,23.47
2022-12-05T18:23:55.776Z,23.43
2022-12-05T18:26:22.218Z,23.45
2022-12-05T18:28:48.751Z,23.63
2022-12-05T18:31:15.987Z,23.69
2022-12-05T18:33:43.479Z,23.71
2022-12-05T18:36:15.459Z,23.88
2022-12-05T18:38:43.252Z,23.89
2022-12-05T18:41:09.823Z,24.09
2022-12-05T18:43:36.290Z,24.33
2022-12-05T18:46:03.656Z,24.42
2022-12-05T18:48:39.422Z,24.44
2022-12-05T18:51:07.152Z,24.46
2022-12-05T18:53:33.639Z,24.38
2022-12-05T18:56:22.051Z,24.34
2022-12-05T18:58:53.935Z,24.40
2022-12-05T19:01:21.145Z,24.45
2022-12-05T19:03:47.763Z,24.62
2022-12-05T19:06:16.126Z,24.67
2022-12-05T19:08:44.355Z,24.68
2022-12-05T19:11:15.287Z,24.65
2022-12-05T19:13:42.070Z,24.58
2022-12-05T19:16:10.105Z,24.54
2022-12-05T19:18:36.709Z,24.59
2022-12-05T19:21:03.249Z,24.59
2022-12-05T19:23:32.400Z,24.53
2022-12-05T19:26:02.978Z,24.57
2022-12-05T19:28:29.420Z,24.53
2022-12-05T19:31:03.263Z,24.50
2022-12-05T19:33:31.370Z,24.45
2022-12-05T19:36:01.797Z,24.47
2022-12-05T19:38:31.302Z,24.48
2022-12-05T19:40:57.920Z,24.47
2022-12-05T19:43:24.379Z,24.52
2022-12-05T19:45:52.074Z,24.54
2022-12-05T19:48:18.927Z,24.56
2022-12-05T19:50:45.399Z,24.49
2022-12-05T19:53:12.329Z,24.43
2022-12-05T19:55:38.884Z,24.44
2022-12-05T19:58:05.331Z,24.40
2022-12-05T20:00:32.192Z,24.39
2022-12-05T20:02:59.056Z,24.38
2022-12-05T20:05:25.789Z,24.40
2022-12-05T20:07:52.355Z,24.44
2022-12-05T20:10:18.830Z,24.41
2022-12-05T20:12:45.286Z,24.48
2022-12-05T20:15:11.746Z,24.40
2022-12-05T20:17:38.199Z,24.38
2022-12-05T20:20:05.099Z,24.37
2022-12-05T20:22:31.592Z,24.30
2022-12-05T20:24:58.073Z,24.28
2022-12-05T20:27:24.538Z,24.27
2022-12-05T20:29:51.043Z,24.27
2022-12-05T20:32:17.495Z,24.23
2022-12-05T20:34:44.014Z,24.18
2022-12-05T20:37:11.366Z,24.20
2022-12-05T20:39:37.817Z,24.20
2022-12-05T20:42:04.755Z,24.19
2022-12-05T20:44:31.242Z,24.19
2022-12-05T20:46:57.950Z,24.16
2022-12-05T20:49:24.397Z,24.18
2022-12-05T20:51:50.861Z,24.12
2022-12-05T20:54:18.206Z,24.02
2022-12-05T20:56:45.458Z,23.88
2022-12-05T20:59:12.413Z,23.79
2022-12-05T21:01:39.598Z,23.75
2022-12-05T21:04:06.851Z,23.70
2022-12-05T21:06:37.994Z,23.66
2022-12-05T21:09:06.420Z,23.66
2022-12-05T21:11:32.890Z,23.65
2022-12-05T21:14:05.041Z,23.62
2022-12-05T21:16:31.609Z,23.61
2022-12-05T21:18:58.825Z,23.57
2022-12-05T21:21:25.981Z,23.53
2022-12-05T21:23:56.941Z,23.71
2022-12-05T21:26:23.892Z,23.65
2022-12-05T21:28:50.354Z,23.77
2022-12-05T21:31:19.044Z,23.77
2022-12-05T21:33:52.835Z,23.75
2022-12-05T21:36:19.385Z,23.66
2022-12-05T21:38:48.408Z,23.54
2022-12-05T21:41:19.112Z,23.61
2022-12-05T21:43:49.606Z,23.66
2022-12-05T21:46:19.059Z,23.64
2022-12-05T21:48:45.690Z,23.62
2022-12-05T21:51:12.482Z,23.61
2022-12-05T21:53:38.915Z,23.58
2022-12-05T21:56:14.578Z,23.55
2022-12-05T21:58:42.717Z,23.51
2022-12-05T22:01:10.042Z,23.53
2022-12-05T22:03:36.620Z,23.55
2022-12-05T22:06:04.296Z,23.52
2022-12-05T22:08:30.909Z,23.51
2022-12-05T22:11:23.230Z,23.52
2022-12-05T22:13:49.829Z,23.50
2022-12-05T22:16:16.633Z,23.47
2022-12-05T22:18:43.190Z,23.45
2022-12-05T22:21:14.497Z,23.40
2022-12-05T22:23:41.050Z,23.37
2022-12-05T22:26:08.572Z,23.34
2022-12-05T22:28:35.097Z,23.31
2022-12-05T22:31:03.893Z,23.29
2022-12-05T22:33:31.525Z,23.22
2022-12-05T22:35:59.341Z,23.13
2022-12-05T22:38:26.778Z,23.12
2022-12-05T22:40:57.153Z,23.15
2022-12-05T22:43:23.949Z,23.12
2022-12-05T22:45:50.826Z,23.11
2022-12-05T22:48:17.359Z,23.09
2022-12-05T22:50:51.940Z,23.06
2022-12-05T22:53:19.288Z,23.04
2022-12-05T22:55:45.739Z,23.02
2022-12-05T22:58:12.181Z,23.01
2022-12-05T23:00:38.697Z,22.99
2022-12-05T23:03:05.235Z,22.93
2022-12-05T23:05:31.775Z,22.96
2022-12-05T23:07:58.292Z,22.93
2022-12-05T23:10:24.864Z,22.92
2022-12-05T23:12:51.337Z,22.90
2022-12-05T23:15:17.880Z,22.88
2022-12-05T23:17:46.326Z,22.85
2022-12-05T23:20:12.800Z,22.82
2022-12-05T23:22:39.249Z,22.79
2022-12-05T23:25:05.897Z,22.72
2022-12-05T23:27:32.365Z,22.62
2022-12-05T23:29:59.170Z,22.63
2022-12-05T23:32:26.095Z,22.64
2022-12-05T23:34:52.665Z,22.62
2022-12-05T23:37:19.428Z,22.59
2022-12-05T23:39:45.939Z,22.60
2022-12-05T23:42:15.325Z,22.59
2022-12-05T23:44:42.357Z,22.36
2022-12-05T23:47:08.872Z,22.25
2022-12-05T23:49:35.352Z,22.22
2022-12-05T23:52:01.949Z,22.20
2022-12-05T23:54:28.433Z,22.18
2022-12-05T23:56:55.099Z,22.16
2022-12-05T23:59:21.573Z,22.15
